sensor_id;sensor_type;location;lat;lon;timestamp;pressure;altitude;pressure_sealevel;temperature;humidity
19890;BME280;10107;51.198;6.824;2024-03-02T00:02:27;66027.44;;;6.65;100.00
19890;BME280;10107;51.198;6.824;2024-03-02T00:06:29;66073.75;;;6.71;100.00
19890;BME280;10107;51.198;6.824;2024-03-02T00:10:36;66045.34;;;6.78;100.00
19890;BME280;10107;51.198;6.824;2024-03-02T00:14:40;66079.41;;;6.83;100.00
19890;BME280;10107;51.198;6.824;2024-03-02T00:18:41;66072.78;;;6.88;100.00
19890;BME280;10107;51.198;6.824;2024-03-02T00:22:44;66063.00;;;6.93;100.00
19890;BME280;10107;51.198;6.824;2024-03-02T00:26:47;66107.97;;;6.89;100.00
19890;BME280;10107;51.198;6.824;2024-03-02T00:30:57;66065.03;;;6.93;100.00
19890;BME280;10107;51.198;6.824;2024-03-02T00:35:00;66085.09;;;6.94;100.00
19890;BME280;10107;51.198;6.824;2024-03-02T00:39:01;66123.16;;;6.93;100.00
19890;BME280;10107;51.198;6.824;2024-03-02T00:43:05;66123.47;;;6.96;100.00
19890;BME280;10107;51.198;6.824;2024-03-02T00:47:07;66125.22;;;6.98;100.00
19890;BME280;10107;51.198;6.824;2024-03-02T00:51:08;66129.94;;;7.02;100.00
19890;BME280;10107;51.198;6.824;2024-03-02T00:55:10;66123.91;;;7.08;100.00
19890;BME280;10107;51.198;6.824;2024-03-02T00:59:16;66145.44;;;7.08;100.00
19890;BME280;10107;51.198;6.824;2024-03-02T01:03:18;66124.53;;;7.08;100.00
19890;BME280;10107;51.198;6.824;2024-03-02T01:07:20;66131.25;;;7.12;100.00
19890;BME280;10107;51.198;6.824;2024-03-02T01:11:22;66076.03;;;7.14;100.00
19890;BME280;10107;51.198;6.824;2024-03-02T01:15:25;66136.22;;;7.14;100.00
19890;BME280;10107;51.198;6.824;2024-03-02T01:19:26;66072.00;;;7.15;100.00
19890;BME280;10107;51.198;6.824;2024-03-02T01:23:28;66123.91;;;7.08;100.00
19890;BME280;10107;51.198;6.824;2024-03-02T01:27:30;66095.28;;;6.97;100.00
19890;BME280;10107;51.198;6.824;2024-03-02T01:31:33;66080.13;;;6.92;100.00
19890;BME280;10107;51.198;6.824;2024-03-02T01:35:35;66098.94;;;6.88;100.00
19890;BME280;10107;51.198;6.824;2024-03-02T01:39:37;66066.66;;;6.85;100.00
19890;BME280;10107;51.198;6.824;2024-03-02T01:43:39;66041.88;;;6.80;100.00
19890;BME280;10107;51.198;6.824;2024-03-02T01:47:42;66071.03;;;6.87;100.00
19890;BME280;10107;51.198;6.824;2024-03-02T01:51:44;66110.66;;;6.94;100.00
19890;BME280;10107;51.198;6.824;2024-03-02T01:55:46;66105.16;;;6.96;100.00
19890;BME280;10107;51.198;6.824;2024-03-02T01:59:48;66092.69;;;6.97;100.00
19890;BME280;10107;51.198;6.824;2024-03-02T02:03:52;66075.59;;;7.02;100.00
19890;BME280;10107;51.198;6.824;2024-03-02T02:07:54;66086.72;;;7.07;100.00
19890;BME280;10107;51.198;6.824;2024-03-02T02:11:59;66114.44;;;7.16;100.00
19890;BME280;10107;51.198;6.824;2024-03-02T02:16:05;66111.94;;;7.25;100.00
19890;BME280;10107;51.198;6.824;2024-03-02T02:20:09;66108.53;;;7.31;100.00
19890;BME280;10107;51.198;6.824;2024-03-02T02:24:12;66173.63;;;7.28;100.00
19890;BME280;10107;51.198;6.824;2024-03-02T02:28:14;66120.09;;;7.27;100.00
19890;BME280;10107;51.198;6.824;2024-03-02T02:32:15;66125.78;;;7.39;100.00
19890;BME280;10107;51.198;6.824;2024-03-02T02:36:17;66156.09;;;7.43;100.00
19890;BME280;10107;51.198;6.824;2024-03-02T02:40:21;66115.44;;;7.48;100.00
19890;BME280;10107;51.198;6.824;2024-03-02T02:44:23;66149.19;;;7.50;100.00
19890;BME280;10107;51.198;6.824;2024-03-02T02:48:24;66164.66;;;7.52;100.00
19890;BME280;10107;51.198;6.824;2024-03-02T02:52:31;66125.38;;;7.52;100.00
19890;BME280;10107;51.198;6.824;2024-03-02T02:56:35;66138.78;;;7.55;100.00
19890;BME280;10107;51.198;6.824;2024-03-02T03:00:36;66152.75;;;7.53;100.00
19890;BME280;10107;51.198;6.824;2024-03-02T03:04:39;66166.69;;;7.52;100.00
19890;BME280;10107;51.198;6.824;2024-03-02T03:08:41;66127.34;;;7.47;100.00
19890;BME280;10107;51.198;6.824;2024-03-02T03:12:44;66104.66;;;7.46;100.00
19890;BME280;10107;51.198;6.824;2024-03-02T03:16:46;66154.66;;;7.44;100.00
19890;BME280;10107;51.198;6.824;2024-03-02T03:20:48;66132.84;;;7.45;100.00
19890;BME280;10107;51.198;6.824;2024-03-02T03:24:50;66140.44;;;7.47;100.00
19890;BME280;10107;51.198;6.824;2024-03-02T03:28:53;66133.19;;;7.48;100.00
19890;BME280;10107;51.198;6.824;2024-03-02T03:32:55;66157.00;;;7.46;100.00
19890;BME280;10107;51.198;6.824;2024-03-02T03:36:57;66139.53;;;7.44;100.00
19890;BME280;10107;51.198;6.824;2024-03-02T03:40:58;66141.22;;;7.41;100.00
19890;BME280;10107;51.198;6.824;2024-03-02T03:45:01;66107.47;;;7.39;100.00
19890;BME280;10107;51.198;6.824;2024-03-02T03:49:03;66086.47;;;7.34;100.00
19890;BME280;10107;51.198;6.824;2024-03-02T03:53:05;66116.66;;;7.29;100.00
19890;BME280;10107;51.198;6.824;2024-03-02T03:57:07;66102.06;;;7.25;100.00
19890;BME280;10107;51.198;6.824;2024-03-02T04:01:10;66125.81;;;7.19;100.00
19890;BME280;10107;51.198;6.824;2024-03-02T04:05:12;66104.81;;;7.14;100.00
19890;BME280;10107;51.198;6.824;2024-03-02T04:09:14;66100.75;;;7.15;100.00
19890;BME280;10107;51.198;6.824;2024-03-02T04:13:16;66114.06;;;7.08;100.00
19890;BME280;10107;51.198;6.824;2024-03-02T04:17:19;66096.19;;;7.00;100.00
19890;BME280;10107;51.198;6.824;2024-03-02T04:21:20;66083.25;;;6.88;100.00
19890;BME280;10107;51.198;6.824;2024-03-02T04:25:22;66107.25;;;6.80;100.00
19890;BME280;10107;51.198;6.824;2024-03-02T04:29:24;66098.44;;;6.72;100.00
19890;BME280;10107;51.198;6.824;2024-03-02T04:33:27;66053.59;;;6.65;100.00
19890;BME280;10107;51.198;6.824;2024-03-02T04:37:29;66031.38;;;6.54;100.00
19890;BME280;10107;51.198;6.824;2024-03-02T04:41:31;66022.03;;;6.51;100.00
19890;BME280;10107;51.198;6.824;2024-03-02T04:45:33;66072.81;;;6.47;100.00
19890;BME280;10107;51.198;6.824;2024-03-02T04:49:36;66055.03;;;6.43;100.00
19890;BME280;10107;51.198;6.824;2024-03-02T04:53:38;66045.44;;;6.42;100.00
19890;BME280;10107;51.198;6.824;2024-03-02T04:57:39;66056.16;;;6.40;100.00
19890;BME280;10107;51.198;6.824;2024-03-02T05:01:41;66011.34;;;6.32;100.00
19890;BME280;10107;51.198;6.824;2024-03-02T05:05:44;66001.75;;;6.31;100.00
19890;BME280;10107;51.198;6.824;2024-03-02T05:09:46;66015.72;;;6.34;100.00
19890;BME280;10107;51.198;6.824;2024-03-02T05:13:48;66045.63;;;6.35;100.00
19890;BME280;10107;51.198;6.824;2024-03-02T05:17:50;66051.38;;;6.31;100.00
19890;BME280;10107;51.198;6.824;2024-03-02T05:21:53;66027.81;;;6.26;100.00
19890;BME280;10107;51.198;6.824;2024-03-02T05:25:55;65996.91;;;6.18;100.00
19890;BME280;10107;51.198;6.824;2024-03-02T05:29:57;66016.38;;;6.19;100.00
19890;BME280;10107;51.198;6.824;2024-03-02T05:33:59;66026.50;;;6.16;100.00
19890;BME280;10107;51.198;6.824;2024-03-02T05:38:02;66003.59;;;6.17;100.00
19890;BME280;10107;51.198;6.824;2024-03-02T05:42:04;65989.94;;;6.16;100.00
19890;BME280;10107;51.198;6.824;2024-03-02T05:46:06;66019.13;;;6.07;100.00
19890;BME280;10107;51.198;6.824;2024-03-02T05:50:08;65951.69;;;5.99;100.00
19890;BME280;10107;51.198;6.824;2024-03-02T05:54:11;65989.84;;;5.91;100.00
19890;BME280;10107;51.198;6.824;2024-03-02T05:58:13;65974.13;;;5.86;100.00
19890;BME280;10107;51.198;6.824;2024-03-02T06:02:27;66008.31;;;5.84;100.00
19890;BME280;10107;51.198;6.824;2024-03-02T06:06:29;65998.06;;;5.78;100.00
19890;BME280;10107;51.198;6.824;2024-03-02T06:10:34;66007.59;;;5.74;100.00
19890;BME280;10107;51.198;6.824;2024-03-02T06:14:35;65945.53;;;5.75;100.00
19890;BME280;10107;51.198;6.824;2024-03-02T06:18:37;65981.03;;;5.83;100.00
19890;BME280;10107;51.198;6.824;2024-03-02T06:22:39;66011.56;;;5.89;100.00
19890;BME280;10107;51.198;6.824;2024-03-02T06:26:42;65985.88;;;5.97;100.00
19890;BME280;10107;51.198;6.824;2024-03-02T06:30:44;65997.06;;;6.06;100.00
19890;BME280;10107;51.198;6.824;2024-03-02T06:34:46;66016.25;;;6.09;100.00
19890;BME280;10107;51.198;6.824;2024-03-02T06:38:47;65998.03;;;6.14;100.00
19890;BME280;10107;51.198;6.824;2024-03-02T06:42:50;66012.84;;;6.15;100.00
19890;BME280;10107;51.198;6.824;2024-03-02T06:46:52;65992.94;;;6.23;100.00
19890;BME280;10107;51.198;6.824;2024-03-02T06:50:54;66029.06;;;6.32;100.00
19890;BME280;10107;51.198;6.824;2024-03-02T06:54:56;66000.44;;;6.41;100.00
19890;BME280;10107;51.198;6.824;2024-03-02T06:58:59;66031.78;;;6.62;100.00
19890;BME280;10107;51.198;6.824;2024-03-02T07:03:01;66057.38;;;6.86;100.00
19890;BME280;10107;51.198;6.824;2024-03-02T07:07:03;66081.59;;;7.17;100.00
19890;BME280;10107;51.198;6.824;2024-03-02T07:11:04;66053.19;;;7.24;100.00
19890;BME280;10107;51.198;6.824;2024-03-02T07:15:09;66105.66;;;7.33;100.00
19890;BME280;10107;51.198;6.824;2024-03-02T07:19:29;66114.09;;;7.59;100.00
19890;BME280;10107;51.198;6.824;2024-03-02T07:23:30;66148.19;;;8.09;100.00
19890;BME280;10107;51.198;6.824;2024-03-02T07:27:33;66211.41;;;8.37;100.00
19890;BME280;10107;51.198;6.824;2024-03-02T07:31:37;66212.47;;;8.53;100.00
19890;BME280;10107;51.198;6.824;2024-03-02T07:35:38;66203.47;;;8.82;100.00
19890;BME280;10107;51.198;6.824;2024-03-02T07:39:40;66247.50;;;9.11;100.00
19890;BME280;10107;51.198;6.824;2024-03-02T07:43:41;66257.66;;;9.34;100.00
19890;BME280;10107;51.198;6.824;2024-03-02T07:47:46;66271.66;;;9.32;100.00
19890;BME280;10107;51.198;6.824;2024-03-02T07:51:48;66294.97;;;9.60;100.00
19890;BME280;10107;51.198;6.824;2024-03-02T07:55:50;66314.31;;;9.67;100.00
19890;BME280;10107;51.198;6.824;2024-03-02T07:59:52;66318.31;;;10.21;95.00
19890;BME280;10107;51.198;6.824;2024-03-02T08:03:55;66543.00;;;14.35;74.82
19890;BME280;10107;51.198;6.824;2024-03-02T08:07:58;67017.75;;;19.01;50.25
19890;BME280;10107;51.198;6.824;2024-03-02T08:12:00;67503.16;;;23.05;39.24
19890;BME280;10107;51.198;6.824;2024-03-02T08:16:02;67557.53;;;22.02;37.79
19890;BME280;10107;51.198;6.824;2024-03-02T08:20:09;67129.88;;;19.82;43.47
19890;BME280;10107;51.198;6.824;2024-03-02T08:24:11;67100.81;;;19.71;43.89
19890;BME280;10107;51.198;6.824;2024-03-02T08:28:13;67530.91;;;23.08;36.26
19890;BME280;10107;51.198;6.824;2024-03-02T08:32:15;67252.88;;;21.16;38.61
19890;BME280;10107;51.198;6.824;2024-03-02T08:36:19;67094.50;;;18.77;44.43
19890;BME280;10107;51.198;6.824;2024-03-02T08:40:20;66900.53;;;16.86;49.77
19890;BME280;10107;51.198;6.824;2024-03-02T08:44:22;66826.91;;;15.07;57.95
19890;BME280;10107;51.198;6.824;2024-03-02T08:48:25;66682.31;;;14.18;63.14
19890;BME280;10107;51.198;6.824;2024-03-02T08:52:28;66649.91;;;14.80;62.18
19890;BME280;10107;51.198;6.824;2024-03-02T08:56:30;66689.78;;;15.72;58.14
19890;BME280;10107;51.198;6.824;2024-03-02T09:00:31;66811.94;;;16.78;54.63
19890;BME280;10107;51.198;6.824;2024-03-02T09:04:33;66852.09;;;16.95;52.93
19890;BME280;10107;51.198;6.824;2024-03-02T09:08:36;66893.75;;;17.19;51.27
19890;BME280;10107;51.198;6.824;2024-03-02T09:12:38;66943.06;;;17.74;50.05
19890;BME280;10107;51.198;6.824;2024-03-02T09:16:40;67028.84;;;18.30;47.46
19890;BME280;10107;51.198;6.824;2024-03-02T09:20:42;67018.78;;;17.98;48.03
19890;BME280;10107;51.198;6.824;2024-03-02T09:24:45;66987.44;;;17.89;48.66
19890;BME280;10107;51.198;6.824;2024-03-02T09:28:47;67054.88;;;18.06;48.53
19890;BME280;10107;51.198;6.824;2024-03-02T09:32:48;67104.88;;;18.66;48.14
19890;BME280;10107;51.198;6.824;2024-03-02T09:36:50;67203.22;;;19.32;44.44
19890;BME280;10107;51.198;6.824;2024-03-02T09:40:54;67293.31;;;20.01;43.10
19890;BME280;10107;51.198;6.824;2024-03-02T09:44:56;67256.25;;;19.53;42.08
19890;BME280;10107;51.198;6.824;2024-03-02T09:48:59;67322.69;;;19.69;43.58
19890;BME280;10107;51.198;6.824;2024-03-02T09:53:02;67329.50;;;20.05;42.91
19890;BME280;10107;51.198;6.824;2024-03-02T09:57:05;67422.69;;;20.90;41.09
19890;BME280;10107;51.198;6.824;2024-03-02T10:01:07;67478.53;;;21.15;39.87
19890;BME280;10107;51.198;6.824;2024-03-02T10:05:10;67496.06;;;21.28;39.95
19890;BME280;10107;51.198;6.824;2024-03-02T10:09:26;67471.69;;;21.16;39.05
19890;BME280;10107;51.198;6.824;2024-03-02T10:13:30;67473.19;;;21.15;39.48
19890;BME280;10107;51.198;6.824;2024-03-02T10:17:32;67496.66;;;21.33;39.09
19890;BME280;10107;51.198;6.824;2024-03-02T10:21:33;67509.41;;;21.32;37.58
19890;BME280;10107;51.198;6.824;2024-03-02T10:25:35;67438.97;;;21.11;39.60
19890;BME280;10107;51.198;6.824;2024-03-02T10:29:39;67604.31;;;21.52;39.22
19890;BME280;10107;51.198;6.824;2024-03-02T10:33:41;67403.69;;;20.55;39.83
19890;BME280;10107;51.198;6.824;2024-03-02T10:37:43;67537.34;;;21.75;38.51
19890;BME280;10107;51.198;6.824;2024-03-02T10:41:46;67687.25;;;22.58;37.68
19890;BME280;10107;51.198;6.824;2024-03-02T10:45:52;67579.28;;;21.72;37.20
19890;BME280;10107;51.198;6.824;2024-03-02T10:49:58;67500.84;;;20.72;39.29
19890;BME280;10107;51.198;6.824;2024-03-02T10:54:02;67430.41;;;20.87;39.12
19890;BME280;10107;51.198;6.824;2024-03-02T10:58:04;67483.31;;;20.64;40.00
19890;BME280;10107;51.198;6.824;2024-03-02T11:02:11;67427.16;;;20.45;40.48
19890;BME280;10107;51.198;6.824;2024-03-02T11:06:15;67445.00;;;20.61;40.14
19890;BME280;10107;51.198;6.824;2024-03-02T11:10:17;67394.50;;;20.12;40.64
19890;BME280;10107;51.198;6.824;2024-03-02T11:14:21;67412.03;;;20.48;40.45
19890;BME280;10107;51.198;6.824;2024-03-02T11:18:26;67428.34;;;20.55;39.38
19890;BME280;10107;51.198;6.824;2024-03-02T11:22:28;67530.84;;;21.19;38.63
19890;BME280;10107;51.198;6.824;2024-03-02T11:26:38;67526.38;;;21.31;38.12
19890;BME280;10107;51.198;6.824;2024-03-02T11:30:52;67494.00;;;20.96;38.09
19890;BME280;10107;51.198;6.824;2024-03-02T11:34:55;67447.97;;;20.72;39.68
19890;BME280;10107;51.198;6.824;2024-03-02T11:38:57;67458.63;;;20.91;39.45
19890;BME280;10107;51.198;6.824;2024-03-02T11:42:59;67424.19;;;20.01;40.15
19890;BME280;10107;51.198;6.824;2024-03-02T11:47:02;67233.44;;;19.08;41.56
19890;BME280;10107;51.198;6.824;2024-03-02T11:51:07;67331.28;;;19.46;41.49
19890;BME280;10107;51.198;6.824;2024-03-02T11:55:09;67492.75;;;20.12;41.35
19890;BME280;10107;51.198;6.824;2024-03-02T11:59:12;67424.78;;;20.62;39.36
19890;BME280;10107;51.198;6.824;2024-03-02T12:03:14;67413.50;;;20.52;39.34
19890;BME280;10107;51.198;6.824;2024-03-02T12:07:22;67381.41;;;19.69;41.16
19890;BME280;10107;51.198;6.824;2024-03-02T12:11:24;67330.00;;;18.85;43.41
19890;BME280;10107;51.198;6.824;2024-03-02T12:15:26;67136.63;;;17.32;46.62
19890;BME280;10107;51.198;6.824;2024-03-02T12:19:29;67052.75;;;16.57;49.56
19890;BME280;10107;51.198;6.824;2024-03-02T12:23:32;66989.06;;;15.90;52.75
19890;BME280;10107;51.198;6.824;2024-03-02T12:27:34;66941.56;;;15.83;54.96
19890;BME280;10107;51.198;6.824;2024-03-02T12:31:36;66918.44;;;15.54;55.40
19890;BME280;10107;51.198;6.824;2024-03-02T12:35:38;66941.75;;;15.68;56.11
19890;BME280;10107;51.198;6.824;2024-03-02T12:39:44;66920.66;;;15.29;57.12
19890;BME280;10107;51.198;6.824;2024-03-02T12:43:46;66887.38;;;15.30;58.13
19890;BME280;10107;51.198;6.824;2024-03-02T12:47:48;66915.44;;;15.42;58.39
19890;BME280;10107;51.198;6.824;2024-03-02T12:51:49;66899.38;;;15.15;58.87
19890;BME280;10107;51.198;6.824;2024-03-02T12:55:55;66875.31;;;15.35;59.33
19890;BME280;10107;51.198;6.824;2024-03-02T12:59:58;66871.97;;;15.12;59.49
19890;BME280;10107;51.198;6.824;2024-03-02T13:04:00;66821.91;;;14.52;61.48
19890;BME280;10107;51.198;6.824;2024-03-02T13:08:02;66822.72;;;14.41;62.65
19890;BME280;10107;51.198;6.824;2024-03-02T13:12:06;66814.19;;;14.41;63.09
19890;BME280;10107;51.198;6.824;2024-03-02T13:16:09;66827.06;;;14.29;63.07
19890;BME280;10107;51.198;6.824;2024-03-02T13:20:11;66818.84;;;14.31;64.16
19890;BME280;10107;51.198;6.824;2024-03-02T13:24:14;66818.06;;;14.51;63.38
19890;BME280;10107;51.198;6.824;2024-03-02T13:28:17;66801.91;;;14.53;63.95
19890;BME280;10107;51.198;6.824;2024-03-02T13:32:19;66808.34;;;14.45;63.20
19890;BME280;10107;51.198;6.824;2024-03-02T13:36:24;66796.28;;;14.46;64.03
19890;BME280;10107;51.198;6.824;2024-03-02T13:40:25;66800.22;;;14.65;63.54
19890;BME280;10107;51.198;6.824;2024-03-02T13:44:29;66866.25;;;14.86;63.02
19890;BME280;10107;51.198;6.824;2024-03-02T13:48:31;66832.03;;;14.70;62.73
19890;BME280;10107;51.198;6.824;2024-03-02T13:52:33;66819.44;;;14.32;64.58
19890;BME280;10107;51.198;6.824;2024-03-02T13:56:35;66816.44;;;14.24;64.10
19890;BME280;10107;51.198;6.824;2024-03-02T14:00:41;66789.50;;;14.42;64.48
19890;BME280;10107;51.198;6.824;2024-03-02T14:04:42;66807.56;;;14.60;63.24
19890;BME280;10107;51.198;6.824;2024-03-02T14:08:44;66835.78;;;14.57;62.84
19890;BME280;10107;51.198;6.824;2024-03-02T14:12:46;66819.03;;;14.59;64.46
19890;BME280;10107;51.198;6.824;2024-03-02T14:16:49;66853.72;;;14.57;63.35
19890;BME280;10107;51.198;6.824;2024-03-02T14:20:51;66838.75;;;14.64;63.31
19890;BME280;10107;51.198;6.824;2024-03-02T14:24:53;66831.09;;;14.62;63.36
19890;BME280;10107;51.198;6.824;2024-03-02T14:28:54;66819.72;;;14.30;64.30
19890;BME280;10107;51.198;6.824;2024-03-02T14:32:57;66782.22;;;14.09;66.24
19890;BME280;10107;51.198;6.824;2024-03-02T14:37:00;66761.34;;;14.06;65.81
19890;BME280;10107;51.198;6.824;2024-03-02T14:41:02;66781.13;;;14.17;66.18
19890;BME280;10107;51.198;6.824;2024-03-02T14:45:04;66764.97;;;14.19;65.51
19890;BME280;10107;51.198;6.824;2024-03-02T14:49:07;66814.41;;;14.30;65.35
19890;BME280;10107;51.198;6.824;2024-03-02T14:53:09;66800.09;;;14.42;65.52
19890;BME280;10107;51.198;6.824;2024-03-02T14:57:11;66798.00;;;14.38;64.85
19890;BME280;10107;51.198;6.824;2024-03-02T15:01:13;66800.41;;;14.50;65.59
19890;BME280;10107;51.198;6.824;2024-03-02T15:05:17;66825.44;;;14.51;65.02
19890;BME280;10107;51.198;6.824;2024-03-02T15:09:19;66830.38;;;14.43;64.60
19890;BME280;10107;51.198;6.824;2024-03-02T15:13:21;66765.03;;;14.33;64.68
19890;BME280;10107;51.198;6.824;2024-03-02T15:17:22;66827.69;;;14.34;65.63
19890;BME280;10107;51.198;6.824;2024-03-02T15:21:25;66790.56;;;14.25;64.27
19890;BME280;10107;51.198;6.824;2024-03-02T15:25:27;66774.72;;;14.30;64.72
19890;BME280;10107;51.198;6.824;2024-03-02T15:29:29;66772.28;;;14.18;64.53
19890;BME280;10107;51.198;6.824;2024-03-02T15:33:31;66764.00;;;14.06;64.70
19890;BME280;10107;51.198;6.824;2024-03-02T15:37:35;66756.81;;;13.86;65.94
19890;BME280;10107;51.198;6.824;2024-03-02T15:41:36;66716.50;;;13.77;66.23
19890;BME280;10107;51.198;6.824;2024-03-02T15:45:41;66688.53;;;13.64;67.27
19890;BME280;10107;51.198;6.824;2024-03-02T15:49:42;66723.41;;;13.55;67.01
19890;BME280;10107;51.198;6.824;2024-03-02T15:53:46;66693.78;;;13.59;67.79
19890;BME280;10107;51.198;6.824;2024-03-02T15:57:47;66717.25;;;13.57;66.93
19890;BME280;10107;51.198;6.824;2024-03-02T16:01:50;66708.38;;;13.44;66.10
19890;BME280;10107;51.198;6.824;2024-03-02T16:05:51;66722.75;;;13.41;66.76
19890;BME280;10107;51.198;6.824;2024-03-02T16:09:54;66698.69;;;13.43;67.39
19890;BME280;10107;51.198;6.824;2024-03-02T16:13:56;66669.25;;;13.36;66.82
19890;BME280;10107;51.198;6.824;2024-03-02T16:17:59;66705.66;;;13.31;67.62
19890;BME280;10107;51.198;6.824;2024-03-02T16:22:02;66679.44;;;13.24;68.49
19890;BME280;10107;51.198;6.824;2024-03-02T16:26:08;66686.44;;;13.16;68.26
19890;BME280;10107;51.198;6.824;2024-03-02T16:30:10;66697.28;;;13.14;68.80
19890;BME280;10107;51.198;6.824;2024-03-02T16:34:12;66654.69;;;13.07;69.10
19890;BME280;10107;51.198;6.824;2024-03-02T16:38:13;66680.47;;;13.02;69.02
19890;BME280;10107;51.198;6.824;2024-03-02T16:42:16;66686.00;;;12.95;69.17
19890;BME280;10107;51.198;6.824;2024-03-02T16:46:20;66670.38;;;12.88;69.05
19890;BME280;10107;51.198;6.824;2024-03-02T16:50:22;66656.28;;;12.85;69.77
19890;BME280;10107;51.198;6.824;2024-03-02T16:54:23;66649.50;;;12.82;69.61
19890;BME280;10107;51.198;6.824;2024-03-02T16:58:26;66685.59;;;12.79;70.19
19890;BME280;10107;51.198;6.824;2024-03-02T17:02:28;66639.47;;;12.73;70.71
19890;BME280;10107;51.198;6.824;2024-03-02T17:06:29;66618.59;;;12.66;71.35
19890;BME280;10107;51.198;6.824;2024-03-02T17:10:31;66611.81;;;12.63;70.84
19890;BME280;10107;51.198;6.824;2024-03-02T17:14:34;66661.06;;;12.60;70.74
19890;BME280;10107;51.198;6.824;2024-03-02T17:18:36;66591.53;;;12.57;71.30
19890;BME280;10107;51.198;6.824;2024-03-02T17:22:37;66616.19;;;12.55;70.30
19890;BME280;10107;51.198;6.824;2024-03-02T17:26:39;66618.50;;;12.53;70.69
19890;BME280;10107;51.198;6.824;2024-03-02T17:30:42;66614.34;;;12.49;71.25
19890;BME280;10107;51.198;6.824;2024-03-02T17:34:44;66572.09;;;12.44;71.76
19890;BME280;10107;51.198;6.824;2024-03-02T17:38:46;66608.41;;;12.39;71.86
19890;BME280;10107;51.198;6.824;2024-03-02T17:42:48;66598.69;;;12.33;73.16
19890;BME280;10107;51.198;6.824;2024-03-02T17:46:51;66561.16;;;12.28;74.33
19890;BME280;10107;51.198;6.824;2024-03-02T17:50:53;66563.75;;;12.23;74.87
19890;BME280;10107;51.198;6.824;2024-03-02T17:54:54;66610.31;;;12.20;75.66
19890;BME280;10107;51.198;6.824;2024-03-02T17:58:56;66554.03;;;12.17;76.20
19890;BME280;10107;51.198;6.824;2024-03-02T18:03:00;66595.63;;;12.17;76.29
19890;BME280;10107;51.198;6.824;2024-03-02T18:07:01;66597.38;;;12.14;76.50
19890;BME280;10107;51.198;6.824;2024-03-02T18:11:03;66572.75;;;12.11;76.79
19890;BME280;10107;51.198;6.824;2024-03-02T18:15:07;66553.97;;;12.08;76.85
19890;BME280;10107;51.198;6.824;2024-03-02T18:19:11;66534.91;;;12.07;77.09
19890;BME280;10107;51.198;6.824;2024-03-02T18:23:13;66579.16;;;12.07;76.06
19890;BME280;10107;51.198;6.824;2024-03-02T18:27:15;66556.00;;;12.07;75.66
19890;BME280;10107;51.198;6.824;2024-03-02T18:31:18;66563.31;;;12.02;76.05
19890;BME280;10107;51.198;6.824;2024-03-02T18:35:23;66592.59;;;12.00;75.09
19890;BME280;10107;51.198;6.824;2024-03-02T18:39:25;66558.31;;;12.00;74.88
19890;BME280;10107;51.198;6.824;2024-03-02T18:43:27;66572.97;;;12.04;74.84
19890;BME280;10107;51.198;6.824;2024-03-02T18:47:28;66580.00;;;12.05;74.55
19890;BME280;10107;51.198;6.824;2024-03-02T18:51:31;66572.97;;;12.04;74.98
19890;BME280;10107;51.198;6.824;2024-03-02T18:55:33;66588.19;;;12.03;75.46
19890;BME280;10107;51.198;6.824;2024-03-02T18:59:35;66585.25;;;12.01;75.54
19890;BME280;10107;51.198;6.824;2024-03-02T19:03:37;66525.47;;;11.99;75.28
19890;BME280;10107;51.198;6.824;2024-03-02T19:07:40;66576.75;;;12.00;75.17
19890;BME280;10107;51.198;6.824;2024-03-02T19:11:42;66546.88;;;12.02;75.48
19890;BME280;10107;51.198;6.824;2024-03-02T19:15:45;66558.59;;;11.98;75.74
19890;BME280;10107;51.198;6.824;2024-03-02T19:19:46;66553.59;;;11.96;76.09
19890;BME280;10107;51.198;6.824;2024-03-02T19:23:49;66528.34;;;11.93;76.64
19890;BME280;10107;51.198;6.824;2024-03-02T19:27:51;66540.88;;;11.87;76.66
19890;BME280;10107;51.198;6.824;2024-03-02T19:31:53;66522.69;;;11.81;77.62
19890;BME280;10107;51.198;6.824;2024-03-02T19:35:55;66527.59;;;11.74;78.07
19890;BME280;10107;51.198;6.824;2024-03-02T19:39:58;66533.97;;;11.65;78.78
19890;BME280;10107;51.198;6.824;2024-03-02T19:44:00;66470.09;;;11.60;78.80
19890;BME280;10107;51.198;6.824;2024-03-02T19:48:03;66472.06;;;11.50;79.75
19890;BME280;10107;51.198;6.824;2024-03-02T19:52:05;66482.84;;;11.44;80.24
19890;BME280;10107;51.198;6.824;2024-03-02T19:56:08;66473.75;;;11.43;80.19
19890;BME280;10107;51.198;6.824;2024-03-02T20:00:17;66496.56;;;11.40;80.86
19890;BME280;10107;51.198;6.824;2024-03-02T20:04:19;66487.47;;;11.39;81.20
19890;BME280;10107;51.198;6.824;2024-03-02T20:08:24;66503.28;;;11.39;81.17
19890;BME280;10107;51.198;6.824;2024-03-02T20:12:28;66476.06;;;11.36;82.17
19890;BME280;10107;51.198;6.824;2024-03-02T20:16:31;66475.78;;;11.38;82.37
19890;BME280;10107;51.198;6.824;2024-03-02T20:20:33;66492.47;;;11.41;82.80
19890;BME280;10107;51.198;6.824;2024-03-02T20:24:34;66473.41;;;11.36;83.49
19890;BME280;10107;51.198;6.824;2024-03-02T20:28:37;66480.75;;;11.35;83.80
19890;BME280;10107;51.198;6.824;2024-03-02T20:32:39;66486.88;;;11.34;84.59
19890;BME280;10107;51.198;6.824;2024-03-02T20:36:41;66483.91;;;11.31;85.75
19890;BME280;10107;51.198;6.824;2024-03-02T20:40:43;66433.53;;;11.24;85.81
19890;BME280;10107;51.198;6.824;2024-03-02T20:44:48;66462.09;;;11.12;86.98
19890;BME280;10107;51.198;6.824;2024-03-02T20:48:50;66478.94;;;10.99;88.45
19890;BME280;10107;51.198;6.824;2024-03-02T20:52:52;66413.34;;;10.88;89.63
19890;BME280;10107;51.198;6.824;2024-03-02T20:56:53;66400.94;;;10.77;90.37
19890;BME280;10107;51.198;6.824;2024-03-02T21:00:57;66423.47;;;10.76;91.50
19890;BME280;10107;51.198;6.824;2024-03-02T21:04:59;66408.53;;;10.75;91.52
19890;BME280;10107;51.198;6.824;2024-03-02T21:09:01;66414.63;;;10.68;93.15
19890;BME280;10107;51.198;6.824;2024-03-02T21:13:04;66396.25;;;10.73;92.85
19890;BME280;10107;51.198;6.824;2024-03-02T21:17:07;66388.97;;;10.78;92.93
19890;BME280;10107;51.198;6.824;2024-03-02T21:21:09;66401.31;;;10.84;92.63
19890;BME280;10107;51.198;6.824;2024-03-02T21:25:11;66437.34;;;10.90;91.93